Terminal Aerodrome Forecast
Issued by NWS

Home | Current Version | Previous Version | Text Only | Print | Product List | Glossary On
Versions: 1 2 3 4 5 6 7 8 9 10 11 12 13
000
FTUS43 KSGF 272300
TAFBBG
TAF
KBBG 272334Z 2800/2824 VRB03KT 2SM -SN BR OVC004
     FM280300 10005KT 5SM BR OVC010
     FM281700 13009KT 3SM -SN OVC030
     FM282200 12007KT 1 1/2SM -SN BR OVC010=

USA.gov is the U.S. government's official web portal to all federal, state and local government web resources and services.